Time;durP1;ratioP1;P1;durP2;ratioP2;P2;SDS_P1;SDS_P2;PMS_P1;PMS_P2;Temp;Humidity;BMP_temperature;BMP_pressure;BME280_temperature;BME280_humidity;BME280_pressure;Samples;Min_cycle;Max_cycle;Signal;HPM_P1;HPM_P2
2023/12/01 00:00:03;;;;;;;;;;;;;;;5.57;65.02;98429.50;4457393;32;34274;-89
2023/12/01 00:02:30;;;;;;;;;;;;;;;5.42;65.54;98434.59;4478471;32;33171;-89
2023/12/01 00:04:57;;;;;;;;;;;;;;;5.28;65.66;98430.81;4453942;32;32884;-89
2023/12/01 00:07:25;;;;;;;;;;;;;;;5.40;65.46;98442.50;4461755;32;34036;-89
2023/12/01 00:09:52;;;;;;;;;;;;;;;5.26;65.97;98447.47;4456857;32;32614;-89
2023/12/01 00:12:20;;;;;;;;;;;;;;;5.17;66.39;98446.09;4453038;32;32090;-89
2023/12/01 00:14:48;;;;;;;;;;;;;;;5.34;66.06;98448.84;4460280;32;32867;-90
2023/12/01 00:17:15;;;;;;;;;;;;;;;5.38;65.72;98439.09;4453494;32;33130;-91
2023/12/01 00:19:43;;;;;;;;;;;;;;;5.25;66.20;98430.94;4457345;32;33087;-90
2023/12/01 00:22:11;;;;;;;;;;;;;;;5.29;66.25;98435.12;4453728;32;33020;-91
2023/12/01 00:25:02;;;;;;;;;;;;;;;5.38;66.19;98444.34;4465420;32;32774;-92
2023/12/01 00:27:49;;;;;;;;;;;;;;;5.28;66.19;98458.75;4471665;32;33302;-90
2023/12/01 00:30:17;;;;;;;;;;;;;;;5.43;65.92;98467.69;4465034;32;34095;-90
2023/12/01 00:32:44;;;;;;;;;;;;;;;5.54;65.67;98470.69;4452973;32;33209;-90
2023/12/01 00:35:12;;;;;;;;;;;;;;;5.35;66.11;98476.72;4449250;32;32669;-89
2023/12/01 00:37:40;;;;;;;;;;;;;;;5.31;66.42;98459.44;4456327;32;33442;-89
2023/12/01 00:40:10;;;;;;;;;;;;;;;5.53;65.83;98459.34;4450129;32;33624;-89
2023/12/01 00:42:37;;;;;;;;;;;;;;;5.51;65.74;98466.44;4468340;32;32537;-89
2023/12/01 00:45:05;;;;;;;;;;;;;;;5.54;65.72;98470.69;4454827;32;32667;-89
2023/12/01 00:47:33;;;;;;;;;;;;;;;5.49;65.74;98483.13;4464676;32;33927;-90
2023/12/01 00:50:01;;;;;;;;;;;;;;;5.60;65.51;98488.72;4461919;32;33454;-89
2023/12/01 00:52:28;;;;;;;;;;;;;;;5.64;65.27;98488.50;4465984;32;33023;-89
2023/12/01 00:54:56;;;;;;;;;;;;;;;5.51;66.00;98503.09;4464021;32;33335;-89
2023/12/01 00:57:23;;;;;;;;;;;;;;;5.52;65.54;98502.16;4456632;32;33407;-89
2023/12/01 00:59:51;;;;;;;;;;;;;;;5.61;65.46;98493.06;4481543;32;34256;-89
2023/12/01 01:02:19;;;;;;;;;;;;;;;5.34;66.59;98489.88;4468252;32;31853;-89
2023/12/01 01:04:46;;;;;;;;;;;;;;;5.45;65.76;98481.56;4469970;32;34522;-88
2023/12/01 01:07:14;;;;;;;;;;;;;;;5.46;66.19;98483.25;4467263;32;34056;-88
2023/12/01 01:09:42;;;;;;;;;;;;;;;5.47;66.05;98479.72;4467572;32;34864;-89
2023/12/01 01:12:10;;;;;;;;;;;;;;;5.66;65.61;98478.00;4480789;32;32699;-90
2023/12/01 01:14:38;;;;;;;;;;;;;;;5.59;65.62;98484.41;4467393;32;33456;-90
2023/12/01 01:17:05;;;;;;;;;;;;;;;5.58;65.67;98485.34;4455058;32;33502;-91
2023/12/01 01:19:32;;;;;;;;;;;;;;;5.52;65.78;98478.59;4475691;32;34555;-90
2023/12/01 01:22:00;;;;;;;;;;;;;;;5.72;65.39;98467.22;4474411;32;32908;-90
2023/12/01 01:24:28;;;;;;;;;;;;;;;5.69;65.00;98469.97;4466043;32;34679;-90
2023/12/01 01:26:55;;;;;;;;;;;;;;;5.56;65.76;98463.63;4467352;32;33801;-90
2023/12/01 01:29:23;;;;;;;;;;;;;;;5.67;65.59;98487.53;4464973;32;34088;-90
2023/12/01 01:31:50;;;;;;;;;;;;;;;5.53;65.90;98487.31;4458854;32;32104;-90
2023/12/01 01:34:18;;;;;;;;;;;;;;;5.52;65.38;98490.84;4467319;32;33337;-90
2023/12/01 01:36:50;;;;;;;;;;;;;;;5.34;66.41;98485.50;4452722;32;34019;-91
2023/12/01 01:39:18;;;;;;;;;;;;;;;5.65;65.00;98481.53;4466131;32;32615;-91
2023/12/01 01:41:45;;;;;;;;;;;;;;;5.64;64.82;98482.44;4453209;32;31723;-90
2023/12/01 01:44:13;;;;;;;;;;;;;;;5.45;66.12;98468.47;4462751;32;33376;-90
2023/12/01 01:46:40;;;;;;;;;;;;;;;5.35;66.38;98471.47;4457327;32;33015;-90
2023/12/01 01:49:08;;;;;;;;;;;;;;;5.47;65.99;98477.13;4469199;32;33711;-91
2023/12/01 01:51:36;;;;;;;;;;;;;;;5.48;66.12;98491.91;4484336;32;33947;-90
2023/12/01 01:54:03;;;;;;;;;;;;;;;5.43;66.06;98493.88;4477441;32;33355;-91
2023/12/01 01:56:31;;;;;;;;;;;;;;;5.54;66.13;98483.78;4466492;32;33103;-91
2023/12/01 01:59:00;;;;;;;;;;;;;;;5.53;65.83;98489.94;4464203;32;33223;-91
2023/12/01 02:01:28;;;;;;;;;;;;;;;5.71;65.21;98486.50;4464834;32;32621;-90
2023/12/01 02:03:56;;;;;;;;;;;;;;;5.64;65.13;98493.75;4442515;32;32867;-90
2023/12/01 02:06:30;;;;;;;;;;;;;;;5.56;65.71;98497.66;4456147;32;33364;-91
2023/12/01 02:09:00;;;;;;;;;;;;;;;5.45;66.32;98497.25;4467114;32;32697;-90
2023/12/01 02:11:27;;;;;;;;;;;;;;;5.44;66.04;98492.94;4462726;32;33358;-91
2023/12/01 02:13:59;;;;;;;;;;;;;;;5.57;66.04;98491.50;4456223;32;34393;-90
2023/12/01 02:16:28;;;;;;;;;;;;;;;5.71;65.46;98481.25;4460790;32;33434;-89
2023/12/01 02:18:55;;;;;;;;;;;;;;;5.71;65.35;98499.59;4473102;32;33777;-89
2023/12/01 02:21:36;;;;;;;;;;;;;;;5.60;65.41;98504.44;4472962;32;32486;-90
2023/12/01 02:24:03;;;;;;;;;;;;;;;5.58;65.59;98498.44;4468457;32;33270;-91
2023/12/01 02:26:32;;;;;;;;;;;;;;;5.73;65.25;98487.25;4453415;32;33237;-91
2023/12/01 02:29:02;;;;;;;;;;;;;;;5.75;64.69;98482.81;4455630;32;33943;-90
2023/12/01 02:31:30;;;;;;;;;;;;;;;5.71;65.28;98478.63;4466743;32;32264;-90
2023/12/01 02:33:58;;;;;;;;;;;;;;;5.71;65.24;98470.78;4460740;32;33132;-90
2023/12/01 02:36:25;;;;;;;;;;;;;;;5.68;65.11;98478.75;4456717;32;33251;-90
2023/12/01 02:38:53;;;;;;;;;;;;;;;5.58;65.71;98478.31;4475391;32;32710;-90
2023/12/01 02:41:20;;;;;;;;;;;;;;;5.59;65.62;98484.41;4457906;32;31930;-90
2023/12/01 02:43:48;;;;;;;;;;;;;;;5.51;66.09;98482.16;4474339;32;33485;-90
2023/12/01 02:46:22;;;;;;;;;;;;;;;5.54;66.17;98483.78;4463909;32;33074;-89
2023/12/01 02:48:50;;;;;;;;;;;;;;;5.63;65.51;98491.22;4463488;32;33955;-90
2023/12/01 02:51:18;;;;;;;;;;;;;;;5.71;65.58;98494.34;4462656;32;33808;-90
2023/12/01 02:53:45;;;;;;;;;;;;;;;5.73;65.57;98502.97;4451978;32;33271;-91
2023/12/01 02:56:13;;;;;;;;;;;;;;;5.67;65.40;98498.03;4468482;32;32922;-91
2023/12/01 02:58:43;;;;;;;;;;;;;;;6.10;63.58;98483.84;4466751;32;32997;-89
2023/12/01 03:01:11;;;;;;;;;;;;;;;5.74;64.09;98481.09;4463602;32;33360;-90
2023/12/01 03:03:40;;;;;;;;;;;;;;;5.59;65.56;98494.88;4476290;32;33586;-89
2023/12/01 03:06:07;;;;;;;;;;;;;;;5.45;65.98;98510.34;4466806;32;33038;-89
2023/12/01 03:08:35;;;;;;;;;;;;;;;5.51;65.88;98502.25;4468141;32;33090;-89
2023/12/01 03:11:06;;;;;;;;;;;;;;;5.53;65.77;98495.16;4461722;32;33119;-90
2023/12/01 03:13:34;;;;;;;;;;;;;;;5.53;65.53;98492.53;4460714;32;32537;-90
2023/12/01 03:16:01;;;;;;;;;;;;;;;5.48;65.18;98486.66;4452596;32;33452;-90
2023/12/01 03:18:29;;;;;;;;;;;;;;;5.65;65.48;98499.87;4460864;32;34773;-90
2023/12/01 03:20:57;;;;;;;;;;;;;;;5.62;65.34;98500.84;4448484;32;32382;-90
2023/12/01 03:23:24;;;;;;;;;;;;;;;5.64;65.56;98509.47;4466745;32;33226;-90
2023/12/01 03:25:51;;;;;;;;;;;;;;;5.50;66.06;98498.75;4450566;32;32672;-90
2023/12/01 03:28:19;;;;;;;;;;;;;;;5.59;65.37;98500.13;4450458;32;33257;-92
2023/12/01 03:31:06;;;;;;;;;;;;;;;5.48;65.76;98497.97;4456124;32;32680;-91
2023/12/01 03:33:35;;;;;;;;;;;;;;;5.53;66.07;98489.94;4448370;32;33344;-91
2023/12/01 03:36:03;;;;;;;;;;;;;;;5.89;64.43;98493.53;4452813;32;33285;-92
2023/12/01 03:38:31;;;;;;;;;;;;;;;5.99;63.86;98498.38;4460716;32;33547;-91
2023/12/01 03:41:06;;;;;;;;;;;;;;;5.80;63.87;98498.34;4465114;32;32601;-91
2023/12/01 03:43:53;;;;;;;;;;;;;;;5.62;64.91;98500.84;4461132;32;32838;-91
2023/12/01 03:46:21;;;;;;;;;;;;;;;5.68;65.26;98504.94;4465780;32;33108;-91
2023/12/01 03:48:49;;;;;;;;;;;;;;;5.71;64.98;98498.75;4458914;32;32401;-92
2023/12/01 03:51:16;;;;;;;;;;;;;;;5.76;65.06;98502.84;4464343;32;31960;-90
2023/12/01 03:53:44;;;;;;;;;;;;;;;5.78;64.75;98508.84;4444237;32;32712;-90
2023/12/01 03:56:11;;;;;;;;;;;;;;;5.65;65.15;98495.47;4444002;32;34424;-91
2023/12/01 03:58:39;;;;;;;;;;;;;;;5.71;64.91;98498.75;4444303;32;32995;-91
2023/12/01 04:01:07;;;;;;;;;;;;;;;5.63;65.53;98485.97;4444578;32;33137;-91
2023/12/01 04:03:35;;;;;;;;;;;;;;;5.67;65.22;98481.47;4444285;32;32626;-91
2023/12/01 04:06:03;;;;;;;;;;;;;;;5.66;65.42;98475.38;4457302;32;33324;-92
2023/12/01 04:08:31;;;;;;;;;;;;;;;5.56;65.56;98479.31;4432034;32;32724;-91
2023/12/01 04:11:01;;;;;;;;;;;;;;;5.73;65.52;98487.25;4444899;32;32566;-92
2023/12/01 04:13:29;;;;;;;;;;;;;;;5.59;65.60;98481.78;4444610;32;33633;-91
2023/12/01 04:15:56;;;;;;;;;;;;;;;5.58;65.97;98483.56;4444358;32;33641;-92
2023/12/01 04:18:27;;;;;;;;;;;;;;;5.62;65.77;98489.53;4452768;32;32717;-92
2023/12/01 04:20:55;;;;;;;;;;;;;;;5.72;65.08;98495.19;4451055;32;32596;-91
2023/12/01 04:23:22;;;;;;;;;;;;;;;5.79;64.93;98476.53;4460133;32;33105;-92
2023/12/01 04:26:30;;;;;;;;;;;;;;;5.82;64.33;98471.13;4453235;32;33733;-92
2023/12/01 04:28:58;;;;;;;;;;;;;;;5.49;65.76;98467.41;4444272;32;34134;-91
2023/12/01 04:31:25;;;;;;;;;;;;;;;5.56;65.41;98479.31;4456512;32;33257;-90
2023/12/01 04:33:53;;;;;;;;;;;;;;;5.58;65.56;98488.81;4456061;32;34265;-90
2023/12/01 04:36:20;;;;;;;;;;;;;;;5.64;65.66;98495.53;4460149;32;33187;-90
2023/12/01 04:38:48;;;;;;;;;;;;;;;5.77;65.14;98487.97;4456856;32;33805;-90
2023/12/01 04:41:15;;;;;;;;;;;;;;;5.74;64.99;98486.34;4463209;32;32945;-91
2023/12/01 04:43:42;;;;;;;;;;;;;;;5.84;64.19;98490.25;4468296;32;32907;-90
2023/12/01 04:46:10;;;;;;;;;;;;;;;5.93;64.05;98488.16;4459810;32;32964;-91
2023/12/01 04:48:38;;;;;;;;;;;;;;;5.58;64.53;98491.41;4455784;32;33211;-90
2023/12/01 04:51:05;;;;;;;;;;;;;;;5.47;64.63;98495.44;4463184;32;32951;-91
2023/12/01 04:53:33;;;;;;;;;;;;;;;5.46;65.42;98493.72;4477746;32;33023;-91
2023/12/01 04:56:01;;;;;;;;;;;;;;;5.55;65.18;98483.69;4456516;32;33359;-91
2023/12/01 04:58:28;;;;;;;;;;;;;;;5.49;65.43;98488.34;4454759;32;32836;-90
2023/12/01 05:00:56;;;;;;;;;;;;;;;5.77;64.63;98480.97;4485362;31;32740;-90
2023/12/01 05:03:24;;;;;;;;;;;;;;;5.76;64.54;98487.13;4459312;32;32441;-91
2023/12/01 05:05:51;;;;;;;;;;;;;;;5.44;65.53;98475.47;4471940;32;33486;-91
2023/12/01 05:08:20;;;;;;;;;;;;;;;5.75;64.57;98469.72;4472105;31;33472;-91
2023/12/01 05:10:50;;;;;;;;;;;;;;;5.76;64.48;98479.28;4472088;32;33364;-90
2023/12/01 05:13:17;;;;;;;;;;;;;;;5.69;64.50;98475.22;4459670;32;33549;-90
2023/12/01 05:15:46;;;;;;;;;;;;;;;5.65;64.81;98474.53;4472453;32;34041;-91
2023/12/01 05:18:13;;;;;;;;;;;;;;;5.20;65.97;98485.25;4459150;32;34570;-91
2023/12/01 05:20:41;;;;;;;;;;;;;;;5.48;65.46;98478.81;4459495;32;32319;-91
2023/12/01 05:23:09;;;;;;;;;;;;;;;5.39;65.02;98467.81;4471793;32;34278;-90
2023/12/01 05:25:38;;;;;;;;;;;;;;;5.24;65.69;98489.44;4458910;32;33246;-90
2023/12/01 05:28:06;;;;;;;;;;;;;;;5.24;65.91;98496.44;4458605;32;32892;-91
2023/12/01 05:30:34;;;;;;;;;;;;;;;5.22;66.01;98496.50;4471350;32;32303;-90
2023/12/01 05:33:04;;;;;;;;;;;;;;;5.23;66.66;98490.34;4458501;32;33824;-89
2023/12/01 05:35:33;;;;;;;;;;;;;;;5.52;65.32;98489.09;4448980;32;33293;-90
2023/12/01 05:38:01;;;;;;;;;;;;;;;5.54;65.04;98492.47;4461029;32;33067;-89
2023/12/01 05:40:29;;;;;;;;;;;;;;;5.39;65.57;98503.62;4465180;32;32727;-89
2023/12/01 05:42:57;;;;;;;;;;;;;;;5.43;64.92;98478.16;4449244;32;33400;-89
2023/12/01 05:45:26;;;;;;;;;;;;;;;5.28;65.62;98501.47;4456861;32;33338;-90
2023/12/01 05:47:55;;;;;;;;;;;;;;;5.24;65.99;98499.06;4476864;32;34133;-90
2023/12/01 05:50:23;;;;;;;;;;;;;;;5.33;65.77;98496.03;4470616;32;32485;-90
2023/12/01 05:52:51;;;;;;;;;;;;;;;5.52;65.21;98486.47;4444896;32;33447;-89
2023/12/01 05:55:22;;;;;;;;;;;;;;;5.19;66.46;98490.53;4444958;32;33452;-89
2023/12/01 06:01:53;;;;;;;;;;;;;;;5.46;65.77;98501.56;4471825;32;34198;-90
2023/12/01 06:04:21;;;;;;;;;;;;;;;5.25;66.46;98496.34;4432295;32;32674;-91
2023/12/01 06:06:49;;;;;;;;;;;;;;;5.22;66.92;98508.72;4445116;32;33115;-91
2023/12/01 06:09:17;;;;;;;;;;;;;;;5.49;65.82;98504.06;4446828;32;32978;-90
2023/12/01 06:11:45;;;;;;;;;;;;;;;5.37;66.34;98506.31;4461248;32;32364;-92
2023/12/01 06:14:32;;;;;;;;;;;;;;;5.40;65.78;98503.53;4465571;32;33385;-92
2023/12/01 06:17:08;;;;;;;;;;;;;;;5.47;65.56;98511.16;4467870;32;34154;-91
2023/12/01 06:19:36;;;;;;;;;;;;;;;5.39;66.19;98506.22;4458251;32;32626;-90
2023/12/01 06:22:04;;;;;;;;;;;;;;;5.49;66.33;98510.16;4466779;32;33195;-91
2023/12/01 06:24:33;;;;;;;;;;;;;;;5.59;66.01;98513.22;4451772;32;32912;-90
2023/12/01 06:27:04;;;;;;;;;;;;;;;5.59;65.61;98521.06;4466258;32;33834;-92
2023/12/01 06:29:34;;;;;;;;;;;;;;;5.96;64.36;98506.38;4466801;32;34263;-90
2023/12/01 06:32:02;;;;;;;;;;;;;;;5.65;64.89;98515.59;4465463;32;32107;-90
2023/12/01 06:34:30;;;;;;;;;;;;;;;5.61;65.69;98508.78;4461368;31;34441;-90
2023/12/01 06:36:59;;;;;;;;;;;;;;;5.51;65.64;98515.34;4454249;31;34024;-90
2023/12/01 06:39:27;;;;;;;;;;;;;;;5.55;66.03;98514.25;4453134;32;33170;-91
2023/12/01 06:41:54;;;;;;;;;;;;;;;5.56;65.38;98516.84;4463203;32;33094;-90
2023/12/01 06:44:23;;;;;;;;;;;;;;;5.51;66.02;98523.19;4464624;31;32724;-92
2023/12/01 06:46:55;;;;;;;;;;;;;;;5.69;65.77;98517.13;4456238;32;34488;-89
2023/12/01 06:49:23;;;;;;;;;;;;;;;5.72;65.35;98511.75;4465621;32;35133;-89
2023/12/01 06:51:51;;;;;;;;;;;;;;;6.02;64.25;98500.84;4468675;32;32781;-89
2023/12/01 06:54:18;;;;;;;;;;;;;;;6.02;63.84;98516.56;4459769;32;33040;-89
2023/12/01 06:56:46;;;;;;;;;;;;;;;5.64;65.14;98509.47;4451484;32;33241;-89
2023/12/01 06:59:13;;;;;;;;;;;;;;;5.52;65.77;98515.25;4462975;32;33843;-89
2023/12/01 07:01:41;;;;;;;;;;;;;;;5.48;65.98;98523.31;4458813;32;31923;-89
2023/12/01 07:04:16;;;;;;;;;;;;;;;5.50;66.25;98513.63;4460022;32;32895;-90
2023/12/01 07:06:46;;;;;;;;;;;;;;;5.59;65.89;98521.06;4472397;32;33800;-90
2023/12/01 07:09:17;;;;;;;;;;;;;;;5.87;65.16;98516.31;4453220;32;33239;-89
2023/12/01 07:11:45;;;;;;;;;;;;;;;5.74;64.73;98536.09;4466510;32;32946;-90
2023/12/01 07:14:13;;;;;;;;;;;;;;;5.52;66.12;98535.34;4466630;32;33739;-90
2023/12/01 07:16:41;;;;;;;;;;;;;;;5.59;65.45;98547.25;4452310;32;33130;-86
2023/12/01 07:19:10;;;;;;;;;;;;;;;5.67;65.80;98553.00;4463897;32;33501;-85
2023/12/01 07:21:38;;;;;;;;;;;;;;;6.12;63.83;98525.69;4472165;32;32902;-85
2023/12/01 07:24:07;;;;;;;;;;;;;;;5.50;65.67;98550.25;4465835;32;32562;-87
2023/12/01 07:26:35;;;;;;;;;;;;;;;5.46;66.57;98548.69;4458157;32;33945;-86
2023/12/01 07:29:06;;;;;;;;;;;;;;;5.94;64.55;98526.56;4460042;32;33435;-87
2023/12/01 07:31:34;;;;;;;;;;;;;;;5.57;66.08;98541.25;4451885;32;32380;-87
2023/12/01 07:34:06;;;;;;;;;;;;;;;5.65;66.05;98515.59;4465915;32;32937;-87
2023/12/01 07:36:34;;;;;;;;;;;;;;;5.74;65.00;98515.16;4474154;31;34066;-86
2023/12/01 07:39:07;;;;;;;;;;;;;;;5.59;65.82;98527.16;4468296;31;34309;-87
2023/12/01 07:41:36;;;;;;;;;;;;;;;5.69;66.16;98526.75;4471436;32;32597;-87
2023/12/01 07:44:04;;;;;;;;;;;;;;;5.58;66.31;98537.69;4451565;32;33035;-87
2023/12/01 07:46:32;;;;;;;;;;;;;;;5.62;66.68;98536.66;4464600;32;33374;-87
2023/12/01 07:49:00;;;;;;;;;;;;;;;5.76;66.13;98523.81;4461016;32;33592;-87
2023/12/01 07:51:36;;;;;;;;;;;;;;;5.58;66.79;98529.84;4471585;32;33099;-87
2023/12/01 07:54:04;;;;;;;;;;;;;;;5.55;66.83;98528.19;4464827;32;33762;-86
2023/12/01 07:56:32;;;;;;;;;;;;;;;5.64;67.04;98542.66;4466558;32;36362;-87
2023/12/01 07:58:59;;;;;;;;;;;;;;;5.74;66.58;98549.19;4454526;32;33147;-87
2023/12/01 08:01:27;;;;;;;;;;;;;;;6.27;64.93;98534.66;4455786;32;32168;-87
2023/12/01 08:03:55;;;;;;;;;;;;;;;6.02;65.48;98548.00;4461978;32;33531;-87
2023/12/01 08:06:22;;;;;;;;;;;;;;;6.20;65.10;98531.44;4461673;32;33363;-88
2023/12/01 08:08:49;;;;;;;;;;;;;;;5.82;66.33;98556.72;4449186;32;33823;-87
2023/12/01 08:11:19;;;;;;;;;;;;;;;6.30;64.95;98551.06;4461670;32;32582;-87
2023/12/01 08:13:49;;;;;;;;;;;;;;;5.88;65.83;98575.63;4462125;31;32784;-86
2023/12/01 08:16:18;;;;;;;;;;;;;;;6.21;65.50;98551.50;4475174;31;33813;-86
2023/12/01 08:18:45;;;;;;;;;;;;;;;6.16;64.75;98540.38;4473163;31;34776;-86
2023/12/01 08:21:14;;;;;;;;;;;;;;;5.57;67.47;98564.81;4473937;31;31229;-87
2023/12/01 08:23:42;;;;;;;;;;;;;;;6.18;65.62;98535.91;4474181;32;33748;-87
2023/12/01 08:26:10;;;;;;;;;;;;;;;5.90;66.17;98546.75;4458722;32;34030;-87
2023/12/01 08:28:38;;;;;;;;;;;;;;;5.75;67.30;98556.16;4460283;32;34662;-87
2023/12/01 08:31:05;;;;;;;;;;;;;;;6.02;66.07;98559.34;4462487;31;32834;-87
2023/12/01 08:33:35;;;;;;;;;;;;;;;5.97;66.95;98552.59;4471074;31;33793;-87
2023/12/01 08:36:03;;;;;;;;;;;;;;;6.05;66.91;98540.00;4464926;32;32947;-86
2023/12/01 08:38:30;;;;;;;;;;;;;;;6.16;66.22;98549.06;4462114;32;33691;-86
2023/12/01 08:40:59;;;;;;;;;;;;;;;6.17;66.57;98555.16;4473260;32;32771;-86
2023/12/01 08:43:27;;;;;;;;;;;;;;;6.15;66.73;98563.09;4463895;32;33391;-86
2023/12/01 08:45:58;;;;;;;;;;;;;;;6.14;67.07;98565.81;4462649;32;33142;-86
2023/12/01 08:48:26;;;;;;;;;;;;;;;6.36;66.06;98553.44;4465420;32;33706;-85
2023/12/01 08:50:54;;;;;;;;;;;;;;;6.31;65.86;98552.75;4473079;32;33166;-86
2023/12/01 08:53:22;;;;;;;;;;;;;;;6.15;66.18;98557.03;4450404;32;34207;-86
2023/12/01 08:55:49;;;;;;;;;;;;;;;6.14;67.02;98550.09;4462337;32;33557;-86
2023/12/01 08:58:20;;;;;;;;;;;;;;;6.20;66.15;98555.03;4475148;32;33522;-86
2023/12/01 09:00:48;;;;;;;;;;;;;;;6.25;66.26;98555.66;4462423;32;32033;-86
2023/12/01 09:03:16;;;;;;;;;;;;;;;6.10;65.78;98567.72;4463762;32;34820;-86
2023/12/01 09:05:43;;;;;;;;;;;;;;;6.26;65.91;98570.47;4460868;32;34458;-86
2023/12/01 09:08:12;;;;;;;;;;;;;;;6.05;66.54;98567.06;4462407;32;34083;-86
2023/12/01 09:10:39;;;;;;;;;;;;;;;6.23;65.87;98573.25;4477622;32;33057;-86
2023/12/01 09:13:06;;;;;;;;;;;;;;;6.14;65.71;98571.91;4453553;32;34019;-86
2023/12/01 09:15:34;;;;;;;;;;;;;;;5.68;67.56;98578.28;4466106;32;33824;-86
2023/12/01 09:18:02;;;;;;;;;;;;;;;5.95;66.09;98564.94;4465903;32;34276;-86
2023/12/01 09:20:30;;;;;;;;;;;;;;;5.64;67.58;98569.69;4468864;32;33063;-86
2023/12/01 09:22:59;;;;;;;;;;;;;;;5.29;68.35;98573.81;4462020;32;33346;-86
2023/12/01 09:25:26;;;;;;;;;;;;;;;5.72;66.96;98569.38;4469366;32;33816;-86
2023/12/01 09:27:54;;;;;;;;;;;;;;;5.44;67.56;98566.25;4474480;32;33982;-86
2023/12/01 09:30:21;;;;;;;;;;;;;;;5.45;67.63;98560.94;4458383;32;32713;-86
2023/12/01 09:32:49;;;;;;;;;;;;;;;5.41;68.02;98556.75;4474742;32;32788;-86
2023/12/01 09:35:19;;;;;;;;;;;;;;;5.64;66.91;98553.97;4473960;32;34062;-86
2023/12/01 09:38:07;;;;;;;;;;;;;;;5.75;66.00;98550.91;4476162;32;33909;-86
2023/12/01 09:40:41;;;;;;;;;;;;;;;4.98;69.11;98557.69;4463565;32;32611;-86
2023/12/01 09:43:08;;;;;;;;;;;;;;;5.16;68.46;98561.31;4463081;32;33741;-86
2023/12/01 09:45:36;;;;;;;;;;;;;;;5.04;68.85;98565.31;4463882;32;33081;-86
2023/12/01 09:48:04;;;;;;;;;;;;;;;4.84;69.14;98563.47;4465854;32;34395;-86
2023/12/01 09:50:32;;;;;;;;;;;;;;;5.07;68.70;98545.06;4462929;32;33241;-85
2023/12/01 09:52:59;;;;;;;;;;;;;;;4.86;69.70;98530.28;4476473;32;34438;-86
2023/12/01 09:55:27;;;;;;;;;;;;;;;4.72;70.18;98512.53;4450358;32;33696;-85
2023/12/01 09:57:54;;;;;;;;;;;;;;;4.99;69.18;98509.72;4463765;32;32940;-85
2023/12/01 10:00:22;;;;;;;;;;;;;;;4.93;69.33;98512.56;4476288;32;33088;-85
2023/12/01 10:02:49;;;;;;;;;;;;;;;4.91;69.49;98524.88;4466282;32;34868;-86
2023/12/01 10:05:20;;;;;;;;;;;;;;;4.87;69.62;98519.75;4475056;32;34080;-85
2023/12/01 10:07:49;;;;;;;;;;;;;;;5.12;69.09;98524.81;4465692;32;35273;-86
2023/12/01 10:10:23;;;;;;;;;;;;;;;4.88;69.65;98529.28;4465499;32;33023;-86
2023/12/01 10:12:55;;;;;;;;;;;;;;;4.81;70.10;98527.84;4476884;32;33686;-85
2023/12/01 10:15:24;;;;;;;;;;;;;;;4.93;69.74;98516.03;4462075;32;33305;-85
2023/12/01 10:17:53;;;;;;;;;;;;;;;4.69;70.54;98507.41;4463631;32;35031;-85
2023/12/01 10:20:21;;;;;;;;;;;;;;;4.46;71.59;98510.09;4464072;32;33609;-85
2023/12/01 10:22:49;;;;;;;;;;;;;;;4.64;70.69;98514.59;4456389;32;32905;-86
2023/12/01 10:25:17;;;;;;;;;;;;;;;4.60;71.33;98502.56;4461974;32;34123;-86
2023/12/01 10:27:52;;;;;;;;;;;;;;;4.82;70.64;98497.31;4463830;32;32959;-85
2023/12/01 10:30:21;;;;;;;;;;;;;;;5.03;69.62;98490.31;4475154;32;33696;-85
2023/12/01 10:32:52;;;;;;;;;;;;;;;4.95;70.07;98492.44;4463761;32;34282;-85
2023/12/01 10:35:19;;;;;;;;;;;;;;;4.76;70.80;98493.19;4475029;32;32930;-86
2023/12/01 10:37:48;;;;;;;;;;;;;;;4.43;71.92;98505.84;4462694;32;33520;-85
2023/12/01 10:40:15;;;;;;;;;;;;;;;4.80;70.95;98500.00;4469791;32;32267;-85
2023/12/01 10:42:42;;;;;;;;;;;;;;;4.82;71.25;98498.16;4451394;32;33624;-86
2023/12/01 10:45:11;;;;;;;;;;;;;;;4.98;69.84;98497.53;4460152;32;33302;-85
2023/12/01 10:47:38;;;;;;;;;;;;;;;4.95;69.42;98489.81;4462263;32;33185;-85
2023/12/01 10:50:07;;;;;;;;;;;;;;;5.13;69.93;98489.06;4467269;32;32953;-84
2023/12/01 10:53:10;;;;;;;;;;;;;;;;;;;;;
2023/12/01 10:55:41;;;;;;;;;;;;;;;4.89;71.10;98483.09;4472951;32;34432;-85
2023/12/01 10:58:09;;;;;;;;;;;;;;;5.11;69.55;98490.88;4476862;32;34266;-84
2023/12/01 11:00:36;;;;;;;;;;;;;;;5.07;68.85;98491.91;4474351;32;32057;-84
2023/12/01 11:03:04;;;;;;;;;;;;;;;5.16;69.97;98488.91;4475677;32;33013;-84
2023/12/01 11:05:33;;;;;;;;;;;;;;;4.72;71.32;98481.16;4460075;32;34170;-84
2023/12/01 11:08:19;;;;;;;;;;;;;;;4.83;69.63;98468.47;4452430;32;33205;-84
2023/12/01 11:11:11;;;;;;;;;;;;;;;4.90;70.74;98457.78;4474197;32;32634;-84
2023/12/01 11:13:54;;;;;;;;;;;;;;;4.73;70.98;98456.69;4464735;32;33686;-84
2023/12/01 11:16:22;;;;;;;;;;;;;;;4.66;71.79;98460.50;4479116;31;33812;-84
2023/12/01 11:18:50;;;;;;;;;;;;;;;4.52;71.98;98471.50;4470734;32;34469;-84
2023/12/01 11:21:18;;;;;;;;;;;;;;;4.97;71.03;98459.19;4461043;32;33486;-84
2023/12/01 11:23:47;;;;;;;;;;;;;;;5.01;70.80;98450.31;4461770;32;33358;-84
2023/12/01 11:26:14;;;;;;;;;;;;;;;4.86;70.63;98450.03;4464534;32;33440;-84
2023/12/01 11:31:25;;;;;;;;;;;;;;;5.65;68.26;98463.22;4460913;32;32302;-84
2023/12/01 11:33:53;;;;;;;;;;;;;;;5.43;69.07;98457.22;4456456;32;34124;-83
2023/12/01 11:36:26;;;;;;;;;;;;;;;5.12;70.42;98445.47;4461860;32;34287;-84
2023/12/01 11:39:11;;;;;;;;;;;;;;;5.28;69.61;98463.97;4449429;32;33456;-84
2023/12/01 11:41:42;;;;;;;;;;;;;;;5.28;69.27;98467.44;4491597;31;33341;-84
2023/12/01 11:44:18;;;;;;;;;;;;;;;5.25;69.41;98467.56;4458757;32;33484;-84
2023/12/01 11:46:58;;;;;;;;;;;;;;;5.44;69.47;98464.16;4450445;32;33136;-84
2023/12/01 11:49:38;;;;;;;;;;;;;;;5.48;69.16;98452.63;4478460;31;34359;-84
2023/12/01 11:52:14;;;;;;;;;;;;;;;5.25;70.17;98449.25;4462683;32;33454;-84
2023/12/01 11:54:43;;;;;;;;;;;;;;;5.23;69.92;98452.88;4456825;32;34047;-84
2023/12/01 11:57:17;;;;;;;;;;;;;;;5.33;69.91;98449.78;4447589;32;33269;-84
2023/12/01 11:59:47;;;;;;;;;;;;;;;5.56;69.25;98450.53;4462357;32;35080;-84
2023/12/01 12:02:16;;;;;;;;;;;;;;;5.40;68.64;98453.81;4476937;32;34267;-85
2023/12/01 12:04:48;;;;;;;;;;;;;;;5.39;70.05;98446.03;4448458;32;35500;-84
2023/12/01 12:07:17;;;;;;;;;;;;;;;5.62;68.63;98438.00;4452959;31;33758;-85
2023/12/01 12:10:00;;;;;;;;;;;;;;;5.53;68.97;98442.81;4454756;32;33368;-84
2023/12/01 12:12:30;;;;;;;;;;;;;;;5.23;70.55;98450.25;4464753;31;32647;-84
2023/12/01 12:15:05;;;;;;;;;;;;;;;5.55;69.70;98439.19;4459581;31;32712;-84
2023/12/01 12:17:37;;;;;;;;;;;;;;;5.73;68.85;98442.75;4450655;32;34853;-84
2023/12/01 12:20:09;;;;;;;;;;;;;;;5.86;68.05;98436.03;4468274;31;33670;-84
2023/12/01 12:22:44;;;;;;;;;;;;;;;5.81;68.46;98421.44;4461540;32;34552;-84
2023/12/01 12:25:13;;;;;;;;;;;;;;;6.12;67.78;98426.13;4453175;32;35248;-84
2023/12/01 12:27:42;;;;;;;;;;;;;;;6.06;67.64;98419.41;4458960;32;33216;-84
2023/12/01 12:30:11;;;;;;;;;;;;;;;6.12;67.87;98421.75;4454730;31;34918;-84
2023/12/01 12:32:40;;;;;;;;;;;;;;;5.67;69.29;98414.22;4466143;32;34077;-84
2023/12/01 12:35:12;;;;;;;;;;;;;;;5.71;69.51;98421.03;4462268;31;34171;-84
2023/12/01 12:37:41;;;;;;;;;;;;;;;5.83;69.42;98428.28;4457933;32;34586;-85
2023/12/01 12:40:09;;;;;;;;;;;;;;;6.10;68.34;98427.97;4456170;32;33138;-85
2023/12/01 12:46:35;;;;;;;;;;;;;;;5.70;69.64;98431.53;4431812;31;35233;-86
2023/12/01 12:49:06;;;;;;;;;;;;;;;5.63;68.68;98421.34;4448610;32;33874;-86
2023/12/01 12:51:48;;;;;;;;;;;;;;;5.84;68.19;98427.41;4463752;31;33455;-86
2023/12/01 12:54:17;;;;;;;;;;;;;;;5.89;67.84;98429.81;4465797;32;33845;-86
2023/12/01 12:56:56;;;;;;;;;;;;;;;5.85;68.60;98428.25;4458411;32;32398;-86
2023/12/01 12:59:26;;;;;;;;;;;;;;;5.42;70.06;98438.06;4449580;32;35098;-86
2023/12/01 13:02:03;;;;;;;;;;;;;;;5.64;68.77;98406.50;4456569;31;33995;-85
2023/12/01 13:04:42;;;;;;;;;;;;;;;5.54;69.29;98420.94;4459086;31;33070;-85
2023/12/01 13:07:35;;;;;;;;;;;;;;;5.28;69.74;98417.72;4458822;32;33709;-86
2023/12/01 13:10:03;;;;;;;;;;;;;;;5.36;69.94;98409.50;4449455;31;33418;-86
2023/12/01 13:12:31;;;;;;;;;;;;;;;5.59;68.50;98413.72;4457385;31;34882;-86
2023/12/01 13:14:58;;;;;;;;;;;;;;;5.47;68.99;98416.91;4462863;32;33374;-85
2023/12/01 13:17:28;;;;;;;;;;;;;;;5.61;68.05;98398.81;4464101;32;33308;-85
2023/12/01 13:19:56;;;;;;;;;;;;;;;5.86;67.98;98404.59;4462032;32;34502;-85